sensor_id;sensor_type;location;lat;lon;timestamp;pressure;altitude;pressure_sealevel;temperature;humidity
18137;BME280;9194;42.632;23.298;2022-11-20T00:02:28;91810.50;;;17.61;72.20
18137;BME280;9194;42.632;23.298;2022-11-20T00:07:29;91853.00;;;17.50;75.45
18137;BME280;9194;42.632;23.298;2022-11-20T00:12:31;91815.88;;;17.51;76.28
18137;BME280;9194;42.632;23.298;2022-11-20T00:17:32;91876.41;;;17.51;75.05
18137;BME280;9194;42.632;23.298;2022-11-20T00:22:33;91835.34;;;17.50;74.62
18137;BME280;9194;42.632;23.298;2022-11-20T00:27:35;91800.34;;;17.74;72.93
18137;BME280;9194;42.632;23.298;2022-11-20T00:32:36;91775.22;;;17.62;73.88
18137;BME280;9194;42.632;23.298;2022-11-20T00:37:38;91790.56;;;17.55;74.04
18137;BME280;9194;42.632;23.298;2022-11-20T00:42:39;91802.28;;;17.44;74.67
18137;BME280;9194;42.632;23.298;2022-11-20T00:47:40;91798.66;;;17.64;69.88
18137;BME280;9194;42.632;23.298;2022-11-20T00:52:41;91800.50;;;17.63;71.82
18137;BME280;9194;42.632;23.298;2022-11-20T00:57:43;91808.59;;;17.67;69.94
18137;BME280;9194;42.632;23.298;2022-11-20T01:02:44;91797.47;;;17.51;72.33
18137;BME280;9194;42.632;23.298;2022-11-20T01:07:45;91795.59;;;17.52;71.59
18137;BME280;9194;42.632;23.298;2022-11-20T01:12:46;91819.69;;;17.40;74.50
18137;BME280;9194;42.632;23.298;2022-11-20T01:18:08;91791.53;;;17.64;71.60
18137;BME280;9194;42.632;23.298;2022-11-20T01:23:09;91754.50;;;17.56;71.22
18137;BME280;9194;42.632;23.298;2022-11-20T01:28:10;91765.22;;;17.59;72.03
18137;BME280;9194;42.632;23.298;2022-11-20T01:33:11;91759.75;;;17.56;71.87
18137;BME280;9194;42.632;23.298;2022-11-20T01:38:15;91753.59;;;17.65;70.40
18137;BME280;9194;42.632;23.298;2022-11-20T01:43:18;91740.63;;;17.50;71.58
18137;BME280;9194;42.632;23.298;2022-11-20T01:48:26;91744.44;;;17.63;69.14
18137;BME280;9194;42.632;23.298;2022-11-20T01:53:31;91747.84;;;17.63;69.13
18137;BME280;9194;42.632;23.298;2022-11-20T01:58:36;91758.19;;;17.55;69.92
18137;BME280;9194;42.632;23.298;2022-11-20T02:03:41;91740.00;;;17.58;69.00
18137;BME280;9194;42.632;23.298;2022-11-20T02:08:42;91778.75;;;17.53;69.47
18137;BME280;9194;42.632;23.298;2022-11-20T02:13:44;91785.28;;;17.55;68.81
18137;BME280;9194;42.632;23.298;2022-11-20T02:18:46;91783.91;;;17.82;66.16
18137;BME280;9194;42.632;23.298;2022-11-20T02:28:59;91779.13;;;17.65;67.94
18137;BME280;9194;42.632;23.298;2022-11-20T02:34:01;91787.41;;;17.53;69.13
18137;BME280;9194;42.632;23.298;2022-11-20T02:39:04;91772.81;;;17.23;71.40
18137;BME280;9194;42.632;23.298;2022-11-20T02:44:05;91776.59;;;17.55;69.51
18137;BME280;9194;42.632;23.298;2022-11-20T02:49:07;91817.06;;;17.40;72.53
18137;BME280;9194;42.632;23.298;2022-11-20T02:54:08;91819.69;;;17.40;74.17
18137;BME280;9194;42.632;23.298;2022-11-20T02:59:09;91834.25;;;17.33;75.01
18137;BME280;9194;42.632;23.298;2022-11-20T03:04:11;91843.53;;;17.25;76.05
18137;BME280;9194;42.632;23.298;2022-11-20T03:09:12;91829.38;;;17.45;74.55
18137;BME280;9194;42.632;23.298;2022-11-20T03:14:14;91820.25;;;17.13;77.50
18137;BME280;9194;42.632;23.298;2022-11-20T03:19:15;91833.47;;;17.08;76.57
18137;BME280;9194;42.632;23.298;2022-11-20T03:24:16;91847.66;;;17.31;74.24
18137;BME280;9194;42.632;23.298;2022-11-20T03:29:17;91834.47;;;17.12;76.16
18137;BME280;9194;42.632;23.298;2022-11-20T03:34:19;91889.59;;;17.22;76.09
18137;BME280;9194;42.632;23.298;2022-11-20T03:39:20;91837.16;;;17.31;75.57
18137;BME280;9194;42.632;23.298;2022-11-20T03:44:21;91878.78;;;17.24;75.72
18137;BME280;9194;42.632;23.298;2022-11-20T03:49:23;91868.69;;;17.07;76.29
18137;BME280;9194;42.632;23.298;2022-11-20T03:54:24;91877.63;;;17.11;76.81
18137;BME280;9194;42.632;23.298;2022-11-20T03:59:25;91876.06;;;17.10;75.69
18137;BME280;9194;42.632;23.298;2022-11-20T04:04:27;91861.78;;;17.16;75.68
18137;BME280;9194;42.632;23.298;2022-11-20T04:09:28;91879.53;;;17.06;76.77
18137;BME280;9194;42.632;23.298;2022-11-20T04:14:29;91856.19;;;16.99;76.00
18137;BME280;9194;42.632;23.298;2022-11-20T04:19:31;91872.81;;;16.90;77.88
18137;BME280;9194;42.632;23.298;2022-11-20T04:24:32;91872.22;;;16.98;76.50
18137;BME280;9194;42.632;23.298;2022-11-20T04:29:33;91884.41;;;16.89;77.90
18137;BME280;9194;42.632;23.298;2022-11-20T04:34:34;91901.72;;;16.95;78.70
18137;BME280;9194;42.632;23.298;2022-11-20T04:39:36;91885.53;;;16.82;80.17
18137;BME280;9194;42.632;23.298;2022-11-20T04:44:37;91866.69;;;16.70;80.81
18137;BME280;9194;42.632;23.298;2022-11-20T04:49:38;91871.63;;;17.06;76.87
18137;BME280;9194;42.632;23.298;2022-11-20T04:54:39;91868.13;;;16.87;80.64
18137;BME280;9194;42.632;23.298;2022-11-20T04:59:41;91861.41;;;16.75;81.42
18137;BME280;9194;42.632;23.298;2022-11-20T05:04:42;91863.41;;;16.83;78.74
18137;BME280;9194;42.632;23.298;2022-11-20T05:09:44;91856.69;;;16.72;81.36
18137;BME280;9194;42.632;23.298;2022-11-20T05:14:45;91840.88;;;16.43;85.70
18137;BME280;9194;42.632;23.298;2022-11-20T05:19:46;91846.81;;;16.54;84.47
18137;BME280;9194;42.632;23.298;2022-11-20T05:24:47;91860.00;;;16.49;85.41
18137;BME280;9194;42.632;23.298;2022-11-20T05:29:49;91817.78;;;16.40;85.82
18137;BME280;9194;42.632;23.298;2022-11-20T05:34:53;91847.50;;;16.36;85.50
18137;BME280;9194;42.632;23.298;2022-11-20T05:39:54;91868.41;;;16.51;85.07
18137;BME280;9194;42.632;23.298;2022-11-20T05:44:59;91855.22;;;16.56;83.15
18137;BME280;9194;42.632;23.298;2022-11-20T05:50:01;91846.28;;;16.57;82.53
18137;BME280;9194;42.632;23.298;2022-11-20T05:55:02;91846.28;;;16.57;81.45
18137;BME280;9194;42.632;23.298;2022-11-20T06:00:04;91836.13;;;16.79;80.74
18137;BME280;9194;42.632;23.298;2022-11-20T06:05:06;91861.19;;;16.67;81.62
18137;BME280;9194;42.632;23.298;2022-11-20T06:10:08;91849.88;;;16.71;81.93
18137;BME280;9194;42.632;23.298;2022-11-20T06:15:09;91888.00;;;16.98;77.69
18137;BME280;9194;42.632;23.298;2022-11-20T06:20:11;91853.75;;;17.03;77.96
18137;BME280;9194;42.632;23.298;2022-11-20T06:25:13;91875.66;;;17.22;76.18
18137;BME280;9194;42.632;23.298;2022-11-20T06:30:15;91895.66;;;17.23;76.91
18137;BME280;9194;42.632;23.298;2022-11-20T06:35:16;91872.84;;;17.37;76.08
18137;BME280;9194;42.632;23.298;2022-11-20T06:40:17;91874.63;;;17.47;73.68
18137;BME280;9194;42.632;23.298;2022-11-20T06:45:18;91878.16;;;17.61;70.89
18137;BME280;9194;42.632;23.298;2022-11-20T06:50:20;91865.13;;;17.93;69.06
18137;BME280;9194;42.632;23.298;2022-11-20T06:55:21;91868.81;;;18.11;67.85
18137;BME280;9194;42.632;23.298;2022-11-20T07:00:22;91875.63;;;18.31;68.50
18137;BME280;9194;42.632;23.298;2022-11-20T07:05:24;91892.03;;;18.28;67.40
18137;BME280;9194;42.632;23.298;2022-11-20T07:10:25;91879.41;;;18.06;69.37
18137;BME280;9194;42.632;23.298;2022-11-20T07:15:27;91893.22;;;17.98;70.42
18137;BME280;9194;42.632;23.298;2022-11-20T07:20:28;91930.78;;;17.61;71.66
18137;BME280;9194;42.632;23.298;2022-11-20T07:25:29;91897.91;;;17.58;71.62
18137;BME280;9194;42.632;23.298;2022-11-20T07:30:31;91886.69;;;17.72;72.32
18137;BME280;9194;42.632;23.298;2022-11-20T07:35:32;91886.81;;;17.61;73.16
18137;BME280;9194;42.632;23.298;2022-11-20T07:40:34;91877.22;;;17.71;72.60
18137;BME280;9194;42.632;23.298;2022-11-20T07:45:35;91870.13;;;17.71;75.03
18137;BME280;9194;42.632;23.298;2022-11-20T07:50:36;91878.75;;;17.53;74.96
18137;BME280;9194;42.632;23.298;2022-11-20T07:55:38;91877.19;;;17.52;78.20
18137;BME280;9194;42.632;23.298;2022-11-20T08:00:39;91877.91;;;17.34;77.06
18137;BME280;9194;42.632;23.298;2022-11-20T08:05:41;91873.53;;;17.72;80.08
18137;BME280;9194;42.632;23.298;2022-11-20T08:10:42;91875.25;;;17.62;83.05
18137;BME280;9194;42.632;23.298;2022-11-20T08:15:48;91887.75;;;17.71;77.91
18137;BME280;9194;42.632;23.298;2022-11-20T08:20:50;91889.38;;;18.09;73.36
18137;BME280;9194;42.632;23.298;2022-11-20T08:25:52;91925.81;;;18.02;73.16
18137;BME280;9194;42.632;23.298;2022-11-20T08:31:00;91936.13;;;18.60;72.27
18137;BME280;9194;42.632;23.298;2022-11-20T08:36:04;91904.34;;;18.51;75.87
18137;BME280;9194;42.632;23.298;2022-11-20T08:41:06;91936.97;;;18.74;69.11
18137;BME280;9194;42.632;23.298;2022-11-20T08:46:34;91946.63;;;18.03;89.76
18137;BME280;9194;42.632;23.298;2022-11-20T08:51:37;91953.69;;;17.84;92.45
18137;BME280;9194;42.632;23.298;2022-11-20T08:56:39;91945.09;;;17.97;92.07
18137;BME280;9194;42.632;23.298;2022-11-20T09:01:40;91933.91;;;17.87;93.64
18137;BME280;9194;42.632;23.298;2022-11-20T09:06:41;91979.41;;;17.40;98.78
18137;BME280;9194;42.632;23.298;2022-11-20T09:11:43;91966.09;;;16.58;100.00
18137;BME280;9194;42.632;23.298;2022-11-20T09:16:45;91960.44;;;15.87;100.00
18137;BME280;9194;42.632;23.298;2022-11-20T09:21:47;91985.44;;;15.44;100.00
18137;BME280;9194;42.632;23.298;2022-11-20T09:26:48;91958.06;;;15.85;100.00
18137;BME280;9194;42.632;23.298;2022-11-20T09:31:49;91960.53;;;16.21;100.00
18137;BME280;9194;42.632;23.298;2022-11-20T09:36:51;91948.38;;;16.35;100.00
18137;BME280;9194;42.632;23.298;2022-11-20T09:42:09;91943.38;;;16.33;100.00
18137;BME280;9194;42.632;23.298;2022-11-20T09:57:42;91908.56;;;16.91;100.00
18137;BME280;9194;42.632;23.298;2022-11-20T10:03:06;91900.09;;;17.51;100.00
18137;BME280;9194;42.632;23.298;2022-11-20T10:08:28;91893.31;;;17.69;96.81
18137;BME280;9194;42.632;23.298;2022-11-20T10:24:29;91889.66;;;17.65;92.27
18137;BME280;9194;42.632;23.298;2022-11-20T10:29:38;91881.50;;;18.09;92.60
18137;BME280;9194;42.632;23.298;2022-11-20T10:34:48;91887.31;;;17.87;87.47
18137;BME280;9194;42.632;23.298;2022-11-20T10:40:32;91904.78;;;18.39;93.25
18137;BME280;9194;42.632;23.298;2022-11-20T10:45:49;91926.53;;;18.08;98.64
18137;BME280;9194;42.632;23.298;2022-11-20T10:56:33;91929.31;;;17.74;100.00
18137;BME280;9194;42.632;23.298;2022-11-20T11:01:41;91931.97;;;17.21;100.00
18137;BME280;9194;42.632;23.298;2022-11-20T11:06:47;91981.06;;;16.58;100.00
18137;BME280;9194;42.632;23.298;2022-11-20T11:11:49;91994.47;;;16.12;100.00
18137;BME280;9194;42.632;23.298;2022-11-20T11:16:53;91979.41;;;15.43;100.00
18137;BME280;9194;42.632;23.298;2022-11-20T11:21:56;92019.03;;;14.66;100.00
18137;BME280;9194;42.632;23.298;2022-11-20T11:27:02;91960.75;;;14.03;100.00
18137;BME280;9194;42.632;23.298;2022-11-20T11:32:15;91999.00;;;13.57;100.00
18137;BME280;9194;42.632;23.298;2022-11-20T11:37:18;91991.38;;;13.45;100.00
18137;BME280;9194;42.632;23.298;2022-11-20T11:42:20;91999.53;;;13.54;100.00
18137;BME280;9194;42.632;23.298;2022-11-20T11:47:25;91990.34;;;13.51;100.00
18137;BME280;9194;42.632;23.298;2022-11-20T11:52:28;91991.69;;;13.54;100.00
18137;BME280;9194;42.632;23.298;2022-11-20T11:57:45;91969.78;;;13.70;100.00
18137;BME280;9194;42.632;23.298;2022-11-20T12:03:05;91955.91;;;13.65;100.00
18137;BME280;9194;42.632;23.298;2022-11-20T12:18:34;91982.97;;;13.33;100.00
18137;BME280;9194;42.632;23.298;2022-11-20T12:23:52;91984.47;;;13.29;100.00
18137;BME280;9194;42.632;23.298;2022-11-20T12:29:19;91991.50;;;13.24;100.00
18137;BME280;9194;42.632;23.298;2022-11-20T12:39:48;91899.81;;;13.35;100.00
18137;BME280;9194;42.632;23.298;2022-11-20T12:45:09;91848.69;;;13.65;100.00
18137;BME280;9194;42.632;23.298;2022-11-20T12:55:41;91794.31;;;14.48;100.00
18137;BME280;9194;42.632;23.298;2022-11-20T13:00:56;91792.88;;;15.01;100.00
18137;BME280;9194;42.632;23.298;2022-11-20T13:06:16;91805.13;;;15.15;100.00
18137;BME280;9194;42.632;23.298;2022-11-20T13:22:10;91918.19;;;14.38;100.00
18137;BME280;9194;42.632;23.298;2022-11-20T13:37:26;91925.47;;;14.31;100.00
18137;BME280;9194;42.632;23.298;2022-11-20T13:42:29;91924.69;;;14.25;100.00
18137;BME280;9194;42.632;23.298;2022-11-20T13:47:30;91930.41;;;14.07;100.00
18137;BME280;9194;42.632;23.298;2022-11-20T14:02:40;91925.19;;;14.17;100.00
18137;BME280;9194;42.632;23.298;2022-11-20T14:07:43;91930.88;;;13.89;100.00
18137;BME280;9194;42.632;23.298;2022-11-20T14:12:44;91925.63;;;13.84;100.00
18137;BME280;9194;42.632;23.298;2022-11-20T14:17:46;91931.41;;;13.86;100.00
18137;BME280;9194;42.632;23.298;2022-11-20T14:22:50;91915.91;;;13.69;100.00
18137;BME280;9194;42.632;23.298;2022-11-20T14:27:57;91913.81;;;13.71;100.00
18137;BME280;9194;42.632;23.298;2022-11-20T14:33:03;91921.88;;;13.54;100.00
18137;BME280;9194;42.632;23.298;2022-11-20T14:38:12;91920.28;;;13.53;100.00
18137;BME280;9194;42.632;23.298;2022-11-20T14:43:23;91926.56;;;13.52;100.00
18137;BME280;9194;42.632;23.298;2022-11-20T14:48:38;91927.59;;;13.46;100.00
18137;BME280;9194;42.632;23.298;2022-11-20T14:53:40;91940.53;;;13.21;100.00
18137;BME280;9194;42.632;23.298;2022-11-20T14:58:41;91931.63;;;13.17;100.00
18137;BME280;9194;42.632;23.298;2022-11-20T15:03:43;91945.19;;;13.14;100.00
18137;BME280;9194;42.632;23.298;2022-11-20T15:08:51;91947.03;;;13.13;100.00
18137;BME280;9194;42.632;23.298;2022-11-20T15:13:53;91954.50;;;13.05;100.00
18137;BME280;9194;42.632;23.298;2022-11-20T15:18:54;91978.16;;;12.88;100.00
18137;BME280;9194;42.632;23.298;2022-11-20T15:23:56;91969.50;;;12.83;100.00
18137;BME280;9194;42.632;23.298;2022-11-20T15:28:58;91981.59;;;12.94;100.00
18137;BME280;9194;42.632;23.298;2022-11-20T15:34:00;91996.16;;;12.80;100.00
18137;BME280;9194;42.632;23.298;2022-11-20T15:39:01;92012.59;;;12.80;100.00
18137;BME280;9194;42.632;23.298;2022-11-20T15:44:04;92061.81;;;12.66;100.00
18137;BME280;9194;42.632;23.298;2022-11-20T15:49:06;92051.34;;;12.61;100.00
18137;BME280;9194;42.632;23.298;2022-11-20T15:54:20;92049.22;;;12.58;100.00
18137;BME280;9194;42.632;23.298;2022-11-20T15:59:22;92068.59;;;12.41;100.00
18137;BME280;9194;42.632;23.298;2022-11-20T16:04:23;92061.13;;;12.22;100.00
18137;BME280;9194;42.632;23.298;2022-11-20T16:09:24;92047.66;;;12.09;100.00
18137;BME280;9194;42.632;23.298;2022-11-20T16:14:26;92053.06;;;11.80;100.00
18137;BME280;9194;42.632;23.298;2022-11-20T16:19:46;92037.78;;;11.72;100.00
18137;BME280;9194;42.632;23.298;2022-11-20T16:24:48;92015.34;;;11.71;100.00
18137;BME280;9194;42.632;23.298;2022-11-20T16:29:49;92014.56;;;11.71;100.00
18137;BME280;9194;42.632;23.298;2022-11-20T16:34:50;92021.16;;;11.73;100.00
18137;BME280;9194;42.632;23.298;2022-11-20T16:39:51;92015.84;;;11.68;100.00
18137;BME280;9194;42.632;23.298;2022-11-20T16:44:53;92021.75;;;11.59;100.00
18137;BME280;9194;42.632;23.298;2022-11-20T16:49:54;92021.53;;;11.65;100.00
18137;BME280;9194;42.632;23.298;2022-11-20T16:54:56;92019.09;;;11.75;100.00
18137;BME280;9194;42.632;23.298;2022-11-20T16:59:58;92027.59;;;11.87;100.00
18137;BME280;9194;42.632;23.298;2022-11-20T17:04:59;92003.72;;;12.01;100.00
18137;BME280;9194;42.632;23.298;2022-11-20T17:10:00;92008.94;;;12.01;100.00
18137;BME280;9194;42.632;23.298;2022-11-20T17:15:02;92009.13;;;11.94;100.00
18137;BME280;9194;42.632;23.298;2022-11-20T17:20:03;91990.47;;;12.02;100.00
18137;BME280;9194;42.632;23.298;2022-11-20T17:25:05;92008.47;;;12.04;100.00
18137;BME280;9194;42.632;23.298;2022-11-20T17:30:07;91975.41;;;12.09;100.00
18137;BME280;9194;42.632;23.298;2022-11-20T17:35:08;91977.78;;;12.11;100.00
18137;BME280;9194;42.632;23.298;2022-11-20T17:40:10;91958.47;;;12.12;100.00
18137;BME280;9194;42.632;23.298;2022-11-20T17:45:11;91943.22;;;11.99;100.00
18137;BME280;9194;42.632;23.298;2022-11-20T17:50:12;91940.94;;;12.07;100.00
18137;BME280;9194;42.632;23.298;2022-11-20T17:55:14;91926.53;;;12.00;100.00
18137;BME280;9194;42.632;23.298;2022-11-20T18:00:15;91893.03;;;11.86;100.00
18137;BME280;9194;42.632;23.298;2022-11-20T18:05:17;91882.78;;;11.80;100.00
18137;BME280;9194;42.632;23.298;2022-11-20T18:10:19;91891.16;;;11.82;100.00
18137;BME280;9194;42.632;23.298;2022-11-20T18:15:20;91878.97;;;11.87;100.00
18137;BME280;9194;42.632;23.298;2022-11-20T18:20:21;91872.94;;;11.87;100.00
18137;BME280;9194;42.632;23.298;2022-11-20T18:25:23;91853.72;;;11.71;100.00
18137;BME280;9194;42.632;23.298;2022-11-20T18:30:24;91877.06;;;11.83;100.00
18137;BME280;9194;42.632;23.298;2022-11-20T18:35:26;91860.06;;;11.75;100.00
18137;BME280;9194;42.632;23.298;2022-11-20T18:40:27;91854.00;;;11.70;100.00
18137;BME280;9194;42.632;23.298;2022-11-20T18:45:28;91847.06;;;11.80;100.00
18137;BME280;9194;42.632;23.298;2022-11-20T18:50:30;91846.59;;;11.88;100.00
18137;BME280;9194;42.632;23.298;2022-11-20T18:55:31;91837.75;;;11.89;100.00
18137;BME280;9194;42.632;23.298;2022-11-20T19:00:33;91851.00;;;11.83;100.00
18137;BME280;9194;42.632;23.298;2022-11-20T19:05:35;91842.88;;;11.79;100.00
18137;BME280;9194;42.632;23.298;2022-11-20T19:10:36;91831.31;;;11.70;100.00
18137;BME280;9194;42.632;23.298;2022-11-20T19:15:37;91847.72;;;11.71;100.00
18137;BME280;9194;42.632;23.298;2022-11-20T19:20:39;91820.69;;;11.77;100.00
18137;BME280;9194;42.632;23.298;2022-11-20T19:25:40;91818.91;;;11.56;100.00
18137;BME280;9194;42.632;23.298;2022-11-20T19:30:42;91827.19;;;11.74;100.00
18137;BME280;9194;42.632;23.298;2022-11-20T19:35:44;91818.16;;;11.82;100.00
18137;BME280;9194;42.632;23.298;2022-11-20T19:40:45;91808.78;;;11.86;100.00
18137;BME280;9194;42.632;23.298;2022-11-20T19:45:46;91788.69;;;11.81;100.00
18137;BME280;9194;42.632;23.298;2022-11-20T19:50:47;91782.63;;;11.76;100.00
18137;BME280;9194;42.632;23.298;2022-11-20T19:55:59;91784.19;;;11.77;100.00
18137;BME280;9194;42.632;23.298;2022-11-20T20:01:13;91763.16;;;11.88;100.00
18137;BME280;9194;42.632;23.298;2022-11-20T20:06:20;91754.28;;;11.84;100.00
18137;BME280;9194;42.632;23.298;2022-11-20T20:11:25;91746.75;;;11.61;100.00
18137;BME280;9194;42.632;23.298;2022-11-20T20:16:27;91748.78;;;11.54;100.00
18137;BME280;9194;42.632;23.298;2022-11-20T20:21:30;91749.88;;;11.58;100.00
18137;BME280;9194;42.632;23.298;2022-11-20T20:26:32;91751.69;;;11.58;100.00
18137;BME280;9194;42.632;23.298;2022-11-20T20:31:34;91745.97;;;11.61;100.00
18137;BME280;9194;42.632;23.298;2022-11-20T20:36:35;91735.22;;;11.52;100.00
18137;BME280;9194;42.632;23.298;2022-11-20T20:41:36;91750.34;;;11.55;100.00
18137;BME280;9194;42.632;23.298;2022-11-20T20:46:38;91753.28;;;11.59;100.00
18137;BME280;9194;42.632;23.298;2022-11-20T20:51:40;91766.50;;;11.52;100.00
18137;BME280;9194;42.632;23.298;2022-11-20T20:56:41;91742.84;;;11.59;100.00
18137;BME280;9194;42.632;23.298;2022-11-20T21:01:43;91714.44;;;11.62;100.00
18137;BME280;9194;42.632;23.298;2022-11-20T21:06:44;91723.81;;;11.58;100.00
18137;BME280;9194;42.632;23.298;2022-11-20T21:11:45;91713.69;;;11.67;100.00
18137;BME280;9194;42.632;23.298;2022-11-20T21:16:46;91694.88;;;11.60;100.00
18137;BME280;9194;42.632;23.298;2022-11-20T21:21:48;91673.94;;;11.76;100.00
18137;BME280;9194;42.632;23.298;2022-11-20T21:27:04;91679.38;;;11.75;100.00
18137;BME280;9194;42.632;23.298;2022-11-20T21:32:06;91660.38;;;11.79;100.00
18137;BME280;9194;42.632;23.298;2022-11-20T21:37:08;91663.31;;;11.88;100.00
18137;BME280;9194;42.632;23.298;2022-11-20T21:42:09;91656.81;;;11.96;100.00
18137;BME280;9194;42.632;23.298;2022-11-20T21:47:10;91626.06;;;11.98;100.00
18137;BME280;9194;42.632;23.298;2022-11-20T21:52:12;91581.94;;;11.86;100.00
18137;BME280;9194;42.632;23.298;2022-11-20T21:57:13;91571.75;;;11.84;100.00
18137;BME280;9194;42.632;23.298;2022-11-20T22:02:14;91561.22;;;11.69;100.00
18137;BME280;9194;42.632;23.298;2022-11-20T22:07:16;91544.63;;;11.80;100.00
18137;BME280;9194;42.632;23.298;2022-11-20T22:12:17;91532.66;;;11.89;100.00
18137;BME280;9194;42.632;23.298;2022-11-20T22:17:18;91510.25;;;11.93;100.00
18137;BME280;9194;42.632;23.298;2022-11-20T22:22:39;91518.03;;;11.83;100.00
18137;BME280;9194;42.632;23.298;2022-11-20T22:27:41;91503.81;;;11.59;100.00
18137;BME280;9194;42.632;23.298;2022-11-20T22:32:42;91486.53;;;11.43;100.00
18137;BME280;9194;42.632;23.298;2022-11-20T22:37:43;91498.31;;;11.50;100.00
18137;BME280;9194;42.632;23.298;2022-11-20T22:42:45;91475.66;;;11.51;100.00
18137;BME280;9194;42.632;23.298;2022-11-20T22:47:47;91451.88;;;11.37;100.00
18137;BME280;9194;42.632;23.298;2022-11-20T22:52:48;91425.09;;;11.47;100.00
18137;BME280;9194;42.632;23.298;2022-11-20T22:57:49;91413.59;;;11.48;100.00
18137;BME280;9194;42.632;23.298;2022-11-20T23:02:50;91387.53;;;11.48;100.00
18137;BME280;9194;42.632;23.298;2022-11-20T23:07:52;91377.91;;;11.53;100.00
18137;BME280;9194;42.632;23.298;2022-11-20T23:12:53;91390.13;;;11.38;100.00
18137;BME280;9194;42.632;23.298;2022-11-20T23:17:54;91371.41;;;11.41;100.00
18137;BME280;9194;42.632;23.298;2022-11-20T23:22:55;91363.53;;;11.36;100.00
18137;BME280;9194;42.632;23.298;2022-11-20T23:27:57;91359.09;;;11.31;100.00
18137;BME280;9194;42.632;23.298;2022-11-20T23:33:24;91344.56;;;11.45;100.00
18137;BME280;9194;42.632;23.298;2022-11-20T23:38:25;91312.50;;;11.35;100.00
18137;BME280;9194;42.632;23.298;2022-11-20T23:43:26;91306.75;;;11.38;100.00
18137;BME280;9194;42.632;23.298;2022-11-20T23:48:30;91312.22;;;11.31;100.00
18137;BME280;9194;42.632;23.298;2022-11-20T23:53:32;91300.22;;;11.30;100.00
18137;BME280;9194;42.632;23.298;2022-11-20T23:58:37;91314.81;;;11.36;100.00
